Wednesday, June 20, 2018, 3:39 AM EDT

KESN, Easton / Newman Field

Location: Easton, MD, United States Lat: 38.8
Local Time: 3:39 AM EDT ( 7:39 GMT) Lon: -76.067
Time Zone: US/Eastern Elev: 72 ft

Show me the last for .
Show Decoded

2018-06-20 03:27 METAR KESN 200729Z AUTO 04004KT 10SM CLR 22/16 A2989 RMK AO2 T02180159 =
2018-06-20 03:07 METAR KESN 200709Z AUTO 05004KT 10SM CLR 22/17 A2989 RMK AO2 T02190165 =
2018-06-20 02:29 METAR KESN 200629Z AUTO 02004KT 10SM CLR 23/17 A2989 RMK AO2 T02260166 =
2018-06-20 02:07 METAR KESN 200609Z AUTO 02003KT 10SM CLR 23/17 A2989 RMK AO2 T02310170 =
2018-06-20 01:49 METAR KESN 200549Z AUTO 02003KT 10SM CLR 24/18 A2989 RMK AO2 T02390175 =
2018-06-20 01:27 METAR KESN 200529Z AUTO 02003KT 10SM CLR 24/19 A2989 RMK AO2 T02410185 =
2018-06-20 01:07 METAR KESN 200509Z AUTO 02004KT 10SM CLR 25/20 A2990 RMK AO2 T02450197 =
2018-06-20 00:49 METAR KESN 200449Z AUTO 02003KT 10SM CLR 24/21 A2990 RMK AO2 T02430212 =
2018-06-20 00:28 METAR KESN 200429Z AUTO 00000KT 10SM CLR 24/23 A2990 RMK AO2 T02370225 =
2018-06-20 00:06 METAR KESN 200409Z AUTO 00000KT 10SM CLR 24/22 A2989 RMK AO2 T02390222 =
2018-06-19 23:49 METAR KESN 200349Z AUTO 00000KT 10SM CLR 24/22 A2989 RMK AO2 T02400223 =
2018-06-19 23:26 METAR KESN 200329Z AUTO 00000KT 10SM CLR 24/23 A2989 RMK AO2 T02430225 =
2018-06-19 23:07 METAR KESN 200309Z AUTO 00000KT 10SM CLR 24/22 A2990 RMK AO2 T02410223 =
2018-06-19 22:49 METAR KESN 200249Z AUTO 00000KT 10SM CLR 25/23 A2990 RMK AO2 T02460226 =
2018-06-19 22:27 METAR KESN 200229Z AUTO 00000KT 10SM CLR 25/23 A2990 RMK AO2 T02450225 =
2018-06-19 21:45 METAR KESN 200145Z 00000KT 10SM SCT120 25/23 A2990 =
2018-06-19 20:50 METAR KESN 200050Z 35003KT 10SM SCT120 26/23 A2988 =
2018-06-19 19:50 METAR KESN 192350Z 00000KT 10SM SCT120 28/23 A2987 =
2018-06-19 18:50 METAR KESN 192250Z 01003KT 10SM SCT080 28/23 A2986 =
2018-06-19 17:50 METAR KESN 192150Z 34004KT 10SM SCT060 BKN150 28/24 A2985 =
2018-06-19 16:45 METAR KESN 192045Z 35005KT 7SM -RA BKN080 BKN150 28/23 A2985 =
2018-06-19 15:55 METAR KESN 191955Z 36004KT 10SM SCT050 BKN100 30/23 A2985 =
2018-06-19 14:50 METAR KESN 191850Z 36003KT 10SM SCT050 BKN100 30/22 A2985 =
2018-06-19 13:50 METAR KESN 191750Z COR 04007KT 10SM SCT040 BKN150 32/23 A2985 =
2018-06-19 12:50 METAR KESN 191650Z 03008KT 10SM SCT036 BKN050 32/24 A2987 =
2018-06-19 11:50 METAR KESN 191550Z 34008KT 10SM SCT050 33/24 A2987 =
2018-06-19 10:50 METAR KESN 191450Z 34008KT 10SM FEW050 SCT250 32/23 A2987 =
2018-06-19 09:50 METAR KESN 191350Z 31007KT 10SM SCT250 30/23 A2987 =
2018-06-19 08:50 METAR KESN 191250Z 27003KT 10SM SCT250 29/23 A2988 =
2018-06-19 07:55 METAR KESN 191155Z 27003KT 10SM BKN250 28/23 A2988 =
2018-06-19 06:45 METAR KESN 191045Z 27003KT 10SM BKN250 27/22 A2988 =
2018-06-19 05:45 METAR KESN 190945Z 28004KT 10SM BKN250 27/23 A2986 =
2018-06-19 05:36 METAR KESN 190936Z AUTO 24003KT 10SM CLR 27/23 A2986 RMK AO2 T02650226 =
2018-06-19 05:27 METAR KESN 190929Z AUTO 00000KT 10SM CLR 26/23 A2986 RMK AO2 T02640227 =
2018-06-19 05:07 METAR KESN 190909Z AUTO 24004KT 10SM CLR 27/23 A2986 RMK AO2 T02650228 =
2018-06-19 04:49 METAR KESN 190849Z AUTO 24003KT 10SM SCT065 27/23 A2986 RMK AO2 T02650230 =
2018-06-19 04:27 METAR KESN 190829Z AUTO 24003KT 10SM SCT065 SCT075 27/23 A2986 RMK AO2 T02670230
                 =
2018-06-19 04:09 METAR KESN 190809Z AUTO 25004KT 10SM CLR 27/23 A2986 RMK AO2 T02660228 =
2018-06-19 03:49 METAR KESN 190749Z AUTO 25004KT 10SM CLR 27/23 A2986 RMK AO2 T02670230 =

Support USWX by starting your Amazon purchase here.